createdAt,value
2023-03-27T00:02:23.581Z,1.07
2023-03-27T00:05:11.257Z,1.40
2023-03-27T00:08:01.873Z,1.10
2023-03-27T00:10:49.242Z,1.37
2023-03-27T00:13:50.379Z,1.10
2023-03-27T00:16:38.638Z,1.83
2023-03-27T00:19:26.479Z,1.60
2023-03-27T00:22:13.874Z,1.43
2023-03-27T00:25:01.400Z,1.20
2023-03-27T00:27:49.142Z,1.50
2023-03-27T00:30:36.765Z,1.40
2023-03-27T00:33:25.238Z,1.53
2023-03-27T00:36:12.734Z,2.20
2023-03-27T00:39:00.592Z,1.30
2023-03-27T00:41:48.698Z,1.90
2023-03-27T00:44:38.642Z,1.27
2023-03-27T00:47:32.957Z,1.73
2023-03-27T00:50:22.692Z,1.50
2023-03-27T00:53:14.576Z,1.30
2023-03-27T00:56:03.697Z,1.40
2023-03-27T00:58:53.263Z,1.83
2023-03-27T01:01:41.065Z,1.80
2023-03-27T01:04:28.794Z,1.27
2023-03-27T01:07:16.527Z,1.80
2023-03-27T01:10:05.410Z,1.27
2023-03-27T01:13:11.732Z,1.20
2023-03-27T01:16:01.958Z,1.70
2023-03-27T01:18:55.141Z,1.90
2023-03-27T01:22:09.174Z,2.23
2023-03-27T01:25:14.765Z,1.50
2023-03-27T01:28:21.052Z,1.40
2023-03-27T01:31:10.049Z,1.50
2023-03-27T01:34:25.386Z,1.60
2023-03-27T01:37:13.572Z,1.50
2023-03-27T01:40:05.091Z,1.13
2023-03-27T01:42:59.458Z,1.33
2023-03-27T01:45:51.360Z,1.37
2023-03-27T01:48:46.639Z,1.70
2023-03-27T01:51:38.666Z,1.47
2023-03-27T01:54:30.899Z,1.40
2023-03-27T01:57:22.243Z,1.53
2023-03-27T02:00:18.428Z,1.53
2023-03-27T02:03:19.126Z,1.40
2023-03-27T02:06:12.133Z,1.67
2023-03-27T02:09:01.860Z,1.60
2023-03-27T02:12:19.655Z,1.20
2023-03-27T02:15:23.196Z,1.23
2023-03-27T02:18:19.144Z,1.90
2023-03-27T02:21:06.672Z,1.37
2023-03-27T02:23:54.367Z,1.40
2023-03-27T02:26:42.031Z,1.37
2023-03-27T02:29:48.226Z,1.50
2023-03-27T02:32:47.489Z,1.37
2023-03-27T02:35:47.821Z,1.20
2023-03-27T02:38:41.502Z,1.30
2023-03-27T02:41:31.229Z,1.37
2023-03-27T02:44:21.760Z,1.40
2023-03-27T02:47:11.868Z,1.40
2023-03-27T02:50:03.090Z,1.50
2023-03-27T02:52:51.899Z,1.10
2023-03-27T02:55:50.506Z,1.23
2023-03-27T02:59:04.053Z,1.50
2023-03-27T03:01:52.800Z,1.63
2023-03-27T03:04:43.092Z,1.33
2023-03-27T03:07:30.565Z,1.43
2023-03-27T03:10:17.996Z,1.20
2023-03-27T03:13:05.376Z,1.90
2023-03-27T03:15:52.749Z,1.50
2023-03-27T03:18:40.109Z,1.93
2023-03-27T03:21:27.755Z,1.33
2023-03-27T03:24:15.243Z,1.73
2023-03-27T03:27:03.823Z,1.20
2023-03-27T03:29:52.408Z,1.40
2023-03-27T03:32:39.879Z,1.67
2023-03-27T03:35:27.991Z,1.70
2023-03-27T03:38:24.686Z,1.67
2023-03-27T03:41:12.141Z,1.50
2023-03-27T03:43:59.612Z,1.57
2023-03-27T03:46:47.059Z,1.70
2023-03-27T03:49:34.593Z,1.93
2023-03-27T03:52:21.981Z,2.10
2023-03-27T03:55:12.850Z,1.67
2023-03-27T03:58:00.271Z,1.30
2023-03-27T04:00:47.798Z,1.30
2023-03-27T04:03:36.055Z,1.53
2023-03-27T04:06:26.680Z,1.60
2023-03-27T04:09:14.066Z,1.53
2023-03-27T04:12:01.807Z,1.27
2023-03-27T04:14:49.194Z,1.80
2023-03-27T04:17:38.348Z,1.67
2023-03-27T04:20:28.884Z,1.93
2023-03-27T04:23:19.724Z,2.38
2023-03-27T04:26:07.233Z,2.47
2023-03-27T04:28:54.711Z,3.37
2023-03-27T04:31:46.573Z,3.40
2023-03-27T04:34:34.164Z,2.77
2023-03-27T04:37:23.119Z,1.77
2023-03-27T04:40:13.790Z,2.17
2023-03-27T04:43:01.736Z,1.87
2023-03-27T04:45:49.115Z,1.80
2023-03-27T04:48:38.940Z,1.60
2023-03-27T04:51:26.715Z,1.70
2023-03-27T04:54:14.118Z,1.57
2023-03-27T04:57:03.456Z,2.07
2023-03-27T04:59:50.928Z,2.07
2023-03-27T05:02:38.349Z,2.00
2023-03-27T05:05:25.875Z,1.70
2023-03-27T05:08:13.355Z,2.10
2023-03-27T05:11:00.881Z,1.70
2023-03-27T05:13:48.318Z,1.87
2023-03-27T05:16:36.253Z,1.73
2023-03-27T05:19:25.542Z,1.90
2023-03-27T05:22:14.569Z,1.93
2023-03-27T05:25:02.362Z,1.70
2023-03-27T05:27:50.574Z,1.70
2023-03-27T05:30:38.037Z,1.70
2023-03-27T05:33:27.481Z,2.03
2023-03-27T05:36:15.435Z,2.10
2023-03-27T05:39:04.575Z,1.70
2023-03-27T05:41:52.051Z,1.70
2023-03-27T05:44:39.411Z,2.27
2023-03-27T05:47:27.045Z,2.30
2023-03-27T05:50:15.067Z,1.53
2023-03-27T05:53:08.141Z,1.87
2023-03-27T05:56:03.151Z,2.17
2023-03-27T05:58:50.960Z,1.47
2023-03-27T06:01:39.745Z,1.97
2023-03-27T06:04:28.458Z,1.67
2023-03-27T06:07:15.952Z,2.53
2023-03-27T06:10:03.365Z,2.03
2023-03-27T06:12:58.682Z,1.93
2023-03-27T06:15:46.715Z,1.43
2023-03-27T06:18:34.561Z,1.93
2023-03-27T06:21:24.241Z,2.00
2023-03-27T06:24:11.656Z,1.70
2023-03-27T06:26:59.081Z,2.33
2023-03-27T06:29:46.894Z,2.47
2023-03-27T06:32:36.413Z,2.20
2023-03-27T06:35:24.423Z,2.47
2023-03-27T06:38:12.690Z,2.33
2023-03-27T06:41:00.379Z,2.03
2023-03-27T06:43:48.106Z,2.57
2023-03-27T06:46:45.162Z,2.00
2023-03-27T06:49:33.079Z,1.97
2023-03-27T06:52:20.456Z,1.83
2023-03-27T06:55:08.543Z,2.10
2023-03-27T06:58:03.314Z,2.13
2023-03-27T07:00:51.114Z,2.47
2023-03-27T07:03:38.646Z,1.73
2023-03-27T07:06:26.150Z,2.13
2023-03-27T07:09:13.671Z,1.77
2023-03-27T07:12:01.049Z,1.57
2023-03-27T07:14:48.426Z,1.73
2023-03-27T07:17:48.016Z,1.80
2023-03-27T07:20:36.857Z,1.53
2023-03-27T07:23:24.288Z,1.77
2023-03-27T07:26:11.955Z,1.30
2023-03-27T07:29:00.977Z,1.60
2023-03-27T07:34:38.731Z,2.23
2023-03-27T07:37:26.089Z,2.23
2023-03-27T07:40:13.769Z,2.30
2023-03-27T07:43:01.783Z,1.47
2023-03-27T07:45:49.919Z,1.57
2023-03-27T07:48:37.411Z,1.70
2023-03-27T07:51:24.900Z,1.40
2023-03-27T07:54:16.966Z,1.63
2023-03-27T07:57:05.227Z,1.33
2023-03-27T07:59:52.865Z,1.30
2023-03-27T08:02:40.699Z,1.33
2023-03-27T08:05:28.141Z,1.23
2023-03-27T08:08:16.075Z,1.13
2023-03-27T08:11:06.224Z,1.40
2023-03-27T08:13:54.408Z,1.50
2023-03-27T08:16:41.990Z,1.10
2023-03-27T08:19:29.429Z,1.20
2023-03-27T08:22:16.881Z,1.20
2023-03-27T08:25:05.207Z,1.20
2023-03-27T08:27:52.855Z,1.30
2023-03-27T08:30:41.354Z,1.30
2023-03-27T08:33:29.444Z,1.30
2023-03-27T08:36:16.874Z,1.10
2023-03-27T08:39:04.947Z,1.30
2023-03-27T08:41:55.105Z,1.57
2023-03-27T08:44:43.024Z,1.63
2023-03-27T08:47:34.628Z,1.50
2023-03-27T08:50:30.302Z,1.30
2023-03-27T08:53:36.363Z,1.53
2023-03-27T08:56:24.934Z,1.60
2023-03-27T08:59:16.173Z,1.53
2023-03-27T09:02:25.007Z,1.40
2023-03-27T09:05:29.999Z,1.50
2023-03-27T09:08:26.726Z,1.33
2023-03-27T09:11:23.469Z,15.97
2023-03-27T09:14:29.619Z,5.53
2023-03-27T09:17:21.083Z,2.63
2023-03-27T09:20:10.013Z,2.20
2023-03-27T09:23:03.140Z,1.90
2023-03-27T09:25:58.859Z,1.50
2023-03-27T09:28:50.862Z,2.20
2023-03-27T09:31:45.450Z,1.90
2023-03-27T09:34:33.408Z,14.67
2023-03-27T09:37:22.000Z,25.20
2023-03-27T09:40:40.951Z,10.87
2023-03-27T09:43:31.699Z,10.00
2023-03-27T09:46:20.639Z,9.27
2023-03-27T09:49:11.194Z,3.20
2023-03-27T09:52:00.082Z,3.63
2023-03-27T09:54:52.837Z,2.17
2023-03-27T09:57:40.455Z,2.10
2023-03-27T10:00:35.247Z,3.93
2023-03-27T10:03:23.271Z,7.10
2023-03-27T10:06:11.625Z,1.67
2023-03-27T10:09:07.011Z,3.10
2023-03-27T10:12:01.999Z,1.87
2023-03-27T10:14:52.378Z,1.70
2023-03-27T10:17:41.552Z,1.40
2023-03-27T10:20:29.062Z,1.40
2023-03-27T10:23:25.704Z,1.30
2023-03-27T10:26:14.962Z,1.37
2023-03-27T10:29:14.962Z,1.20
2023-03-27T10:32:06.575Z,1.40
2023-03-27T10:34:57.962Z,1.30
2023-03-27T10:37:50.032Z,1.30
2023-03-27T10:40:39.609Z,1.23
2023-03-27T10:43:32.866Z,1.27
2023-03-27T10:46:30.566Z,2.27
2023-03-27T10:49:21.052Z,1.20
2023-03-27T10:52:08.452Z,1.60
2023-03-27T10:55:01.893Z,1.20
2023-03-27T10:57:53.944Z,1.40
2023-03-27T11:00:44.236Z,1.30
2023-03-27T11:03:37.521Z,1.60
2023-03-27T11:06:29.282Z,1.27
2023-03-27T11:09:39.344Z,1.50
2023-03-27T11:12:28.410Z,1.70
2023-03-27T11:15:22.074Z,1.37
2023-03-27T11:18:19.373Z,1.10
2023-03-27T11:21:15.925Z,1.90
2023-03-27T11:24:04.521Z,1.50
2023-03-27T11:27:07.041Z,1.50
2023-03-27T11:30:00.590Z,1.40
2023-03-27T11:33:06.333Z,1.30
2023-03-27T11:36:05.777Z,1.10
2023-03-27T11:39:01.882Z,1.43
2023-03-27T11:41:57.868Z,1.20
2023-03-27T11:44:45.549Z,2.77
2023-03-27T11:47:42.911Z,1.30
2023-03-27T11:50:35.090Z,2.33
2023-03-27T11:53:25.542Z,2.03
2023-03-27T11:56:16.110Z,1.50
2023-03-27T11:59:18.795Z,1.23
2023-03-27T12:02:15.364Z,1.70
2023-03-27T12:05:43.120Z,1.17
2023-03-27T12:08:33.274Z,1.30
2023-03-27T12:11:22.703Z,1.03
2023-03-27T12:14:34.317Z,1.03
2023-03-27T12:17:41.505Z,1.27
2023-03-27T12:20:31.733Z,1.07
2023-03-27T12:23:28.036Z,1.27
2023-03-27T12:26:18.668Z,1.13
2023-03-27T12:29:23.603Z,1.23
2023-03-27T12:32:47.353Z,1.20
2023-03-27T12:35:47.020Z,1.30
2023-03-27T12:38:39.278Z,0.70
2023-03-27T12:41:26.729Z,0.63
2023-03-27T12:44:15.443Z,0.70
2023-03-27T12:47:17.993Z,0.70
2023-03-27T12:50:11.718Z,0.80
2023-03-27T12:53:04.229Z,0.80
2023-03-27T12:56:12.331Z,1.00
2023-03-27T12:58:59.834Z,1.20
2023-03-27T13:01:52.046Z,1.40
2023-03-27T13:04:50.149Z,1.73
2023-03-27T13:07:44.868Z,1.00
2023-03-27T13:10:47.216Z,1.50
2023-03-27T13:13:51.710Z,0.93
2023-03-27T13:16:39.070Z,1.20
2023-03-27T13:19:26.441Z,1.07
2023-03-27T13:22:25.430Z,1.20
2023-03-27T13:25:21.956Z,1.90
2023-03-27T13:28:28.262Z,1.07
2023-03-27T13:31:35.875Z,0.80
2023-03-27T13:34:34.128Z,1.10
2023-03-27T13:37:25.929Z,1.37
2023-03-27T13:40:30.917Z,1.50
2023-03-27T13:43:26.508Z,2.10
2023-03-27T13:46:18.918Z,1.80
2023-03-27T13:49:26.649Z,2.27
2023-03-27T13:52:14.020Z,2.60
2023-03-27T13:55:11.881Z,1.90
2023-03-27T13:58:08.890Z,1.20
2023-03-27T14:01:03.809Z,1.30
2023-03-27T14:03:54.463Z,1.20
2023-03-27T14:07:00.997Z,1.50
2023-03-27T14:09:51.481Z,1.80
2023-03-27T14:12:54.859Z,2.00
2023-03-27T14:15:51.216Z,1.70
2023-03-27T14:18:57.282Z,1.67
2023-03-27T14:22:00.141Z,1.47
2023-03-27T14:24:55.987Z,1.37
2023-03-27T14:27:45.482Z,2.03
2023-03-27T14:30:40.488Z,1.87
2023-03-27T14:33:28.616Z,1.97
2023-03-27T14:36:16.758Z,1.90
2023-03-27T14:39:14.600Z,1.77
2023-03-27T14:42:02.761Z,1.43
2023-03-27T14:44:50.445Z,1.57
2023-03-27T14:47:38.009Z,1.60
2023-03-27T14:50:27.151Z,1.27
2023-03-27T14:53:17.359Z,1.33
2023-03-27T14:56:11.459Z,1.50
2023-03-27T14:59:02.179Z,1.20
2023-03-27T15:01:51.153Z,1.30
2023-03-27T15:04:40.093Z,1.33
2023-03-27T15:07:28.540Z,1.30
2023-03-27T15:10:21.373Z,1.10
2023-03-27T15:13:10.009Z,1.23
2023-03-27T15:15:59.677Z,1.13
2023-03-27T15:18:49.211Z,1.13
2023-03-27T15:21:46.531Z,1.33
2023-03-27T15:24:33.916Z,1.20
2023-03-27T15:27:28.336Z,1.10
2023-03-27T15:30:16.340Z,1.30
2023-03-27T15:33:05.619Z,1.30
2023-03-27T15:35:56.328Z,1.43
2023-03-27T15:38:44.933Z,1.67
2023-03-27T15:41:36.309Z,1.30
2023-03-27T15:44:26.764Z,1.40
2023-03-27T15:47:25.001Z,1.50
2023-03-27T15:50:23.993Z,1.23
2023-03-27T15:53:11.362Z,0.93
2023-03-27T15:55:59.846Z,1.00
2023-03-27T15:59:02.012Z,1.60
2023-03-27T16:01:53.854Z,1.20
2023-03-27T16:04:52.966Z,1.30
2023-03-27T16:07:43.223Z,1.50
2023-03-27T16:10:32.555Z,1.63
2023-03-27T16:13:27.948Z,1.20
2023-03-27T16:16:24.866Z,1.67
2023-03-27T16:19:13.834Z,1.30
2023-03-27T16:22:01.975Z,1.90
2023-03-27T16:24:49.501Z,1.40
2023-03-27T16:27:38.564Z,1.00
2023-03-27T16:30:29.465Z,1.10
2023-03-27T16:33:18.134Z,1.40
2023-03-27T16:36:06.149Z,1.10
2023-03-27T16:38:53.589Z,1.23
2023-03-27T16:41:40.978Z,0.97
2023-03-27T16:44:28.547Z,0.87
2023-03-27T16:47:17.537Z,1.23
2023-03-27T16:50:11.009Z,1.03
2023-03-27T16:52:59.411Z,6.83
2023-03-27T16:55:47.240Z,12.33
2023-03-27T16:58:34.673Z,3.07
2023-03-27T17:01:23.987Z,2.60
2023-03-27T17:04:11.508Z,2.40
2023-03-27T17:06:59.100Z,1.50
2023-03-27T17:09:46.504Z,2.20
2023-03-27T17:12:34.048Z,1.80
2023-03-27T17:15:21.491Z,1.40
2023-03-27T17:18:08.935Z,1.20
2023-03-27T17:20:56.415Z,1.33
2023-03-27T17:23:43.961Z,1.10
2023-03-27T17:26:32.870Z,1.40
2023-03-27T17:29:20.502Z,2.00
2023-03-27T17:32:08.052Z,1.53
2023-03-27T17:34:55.901Z,1.30
2023-03-27T17:37:43.315Z,1.20
2023-03-27T17:40:30.887Z,1.60
2023-03-27T17:43:18.717Z,2.20
2023-03-27T17:46:06.402Z,3.10
2023-03-27T17:48:53.896Z,2.13
2023-03-27T17:51:41.580Z,2.20
2023-03-27T17:54:29.050Z,2.03
2023-03-27T17:57:16.521Z,1.70
2023-03-27T18:00:06.484Z,2.53
2023-03-27T18:02:54.142Z,1.70
2023-03-27T18:05:42.336Z,1.93
2023-03-27T18:08:29.777Z,1.60
2023-03-27T18:11:17.555Z,1.73
2023-03-27T18:14:05.380Z,2.00
2023-03-27T18:16:52.782Z,2.23
2023-03-27T18:19:40.292Z,1.63
2023-03-27T18:22:28.245Z,1.67
2023-03-27T18:25:15.944Z,1.80
2023-03-27T18:28:03.351Z,1.70
2023-03-27T18:31:00.679Z,1.80
2023-03-27T18:33:48.098Z,1.53
2023-03-27T18:36:35.800Z,1.53
2023-03-27T18:39:23.204Z,1.47
2023-03-27T18:42:10.942Z,1.30
2023-03-27T18:44:58.365Z,1.30
2023-03-27T18:47:46.151Z,1.10
2023-03-27T18:50:33.601Z,1.67
2023-03-27T18:53:21.164Z,1.33
2023-03-27T18:56:08.708Z,1.37
2023-03-27T18:58:56.081Z,1.13
2023-03-27T19:01:43.976Z,1.30
2023-03-27T19:04:31.399Z,1.30
2023-03-27T19:07:18.769Z,1.37
2023-03-27T19:10:06.529Z,1.60
2023-03-27T19:12:55.084Z,1.10
2023-03-27T19:15:42.497Z,1.60
2023-03-27T19:18:30.551Z,1.30
2023-03-27T19:21:18.012Z,1.30
2023-03-27T19:24:05.628Z,1.60
2023-03-27T19:26:53.077Z,1.10
2023-03-27T19:29:41.581Z,1.67
2023-03-27T19:32:29.424Z,1.30
2023-03-27T19:35:16.835Z,1.40
2023-03-27T19:38:04.362Z,1.40
2023-03-27T19:40:51.749Z,1.43
2023-03-27T19:43:39.180Z,1.50
2023-03-27T19:46:26.768Z,1.73
2023-03-27T19:49:16.167Z,1.27
2023-03-27T19:52:03.713Z,1.20
2023-03-27T19:54:51.164Z,1.77
2023-03-27T19:57:38.651Z,1.30
2023-03-27T20:00:26.072Z,1.50
2023-03-27T20:03:16.728Z,1.40
2023-03-27T20:06:07.486Z,1.17
2023-03-27T20:09:00.931Z,1.13
2023-03-27T20:11:48.434Z,1.37
2023-03-27T20:14:35.984Z,1.10
2023-03-27T20:17:28.047Z,1.27
2023-03-27T20:20:16.556Z,1.60
2023-03-27T20:23:03.944Z,1.07
2023-03-27T20:25:51.949Z,1.90
2023-03-27T20:28:39.303Z,1.30
2023-03-27T20:31:26.821Z,1.40
2023-03-27T20:34:14.744Z,1.43
2023-03-27T20:37:03.581Z,1.20
2023-03-27T20:39:51.923Z,1.43
2023-03-27T20:42:46.705Z,1.40
2023-03-27T20:45:34.190Z,1.97
2023-03-27T20:48:22.073Z,1.67
2023-03-27T20:51:14.761Z,1.53
2023-03-27T20:54:08.745Z,1.40
2023-03-27T20:56:56.386Z,1.40
2023-03-27T20:59:46.187Z,1.77
2023-03-27T21:02:35.601Z,1.97
2023-03-27T21:05:23.175Z,1.40
2023-03-27T21:08:10.658Z,2.47
2023-03-27T21:10:58.061Z,1.60
2023-03-27T21:13:45.579Z,1.87
2023-03-27T21:16:33.022Z,1.63
2023-03-27T21:19:20.556Z,1.30
2023-03-27T21:22:08.022Z,1.50
2023-03-27T21:24:55.433Z,1.50
2023-03-27T21:27:43.012Z,1.60
2023-03-27T21:30:46.698Z,2.00
2023-03-27T21:33:36.083Z,1.10
2023-03-27T21:36:23.629Z,1.43
2023-03-27T21:39:11.236Z,1.30
2023-03-27T21:41:58.611Z,1.40
2023-03-27T21:44:50.876Z,1.20
2023-03-27T21:47:47.435Z,2.53
2023-03-27T21:50:35.712Z,2.00
2023-03-27T21:53:23.084Z,1.67
2023-03-27T21:56:10.564Z,1.77
2023-03-27T21:58:57.977Z,1.80
2023-03-27T22:01:45.443Z,1.60
2023-03-27T22:04:32.953Z,1.90
2023-03-27T22:07:20.407Z,1.17
2023-03-27T22:10:08.068Z,1.40
2023-03-27T22:12:55.692Z,3.93
2023-03-27T22:15:43.100Z,1.20
2023-03-27T22:18:32.204Z,1.43
2023-03-27T22:21:24.947Z,1.47
2023-03-27T22:24:12.540Z,1.60
2023-03-27T22:27:00.360Z,1.30
2023-03-27T22:29:47.772Z,1.53
2023-03-27T22:32:35.456Z,1.50
2023-03-27T22:35:22.993Z,1.60
2023-03-27T22:38:10.423Z,1.60
2023-03-27T22:40:58.087Z,1.57
2023-03-27T22:43:47.889Z,1.57
2023-03-27T22:46:37.608Z,1.63
2023-03-27T22:49:25.102Z,2.37
2023-03-27T22:52:12.475Z,1.50
2023-03-27T22:55:00.210Z,1.40
2023-03-27T22:57:47.577Z,1.40
2023-03-27T23:00:35.235Z,2.17
2023-03-27T23:03:23.559Z,1.63
2023-03-27T23:06:16.866Z,2.03
2023-03-27T23:09:04.312Z,1.60
2023-03-27T23:11:51.702Z,1.50
2023-03-27T23:14:39.085Z,1.70
2023-03-27T23:17:27.258Z,2.10
2023-03-27T23:20:14.751Z,1.53
2023-03-27T23:23:02.210Z,1.90
2023-03-27T23:25:49.860Z,1.40
2023-03-27T23:28:38.956Z,2.27
2023-03-27T23:31:26.445Z,1.40
2023-03-27T23:34:14.046Z,1.63
2023-03-27T23:37:01.845Z,1.57
2023-03-27T23:39:49.252Z,1.80
2023-03-27T23:42:36.615Z,1.70
2023-03-27T23:45:24.276Z,1.50
2023-03-27T23:48:11.699Z,1.67
2023-03-27T23:50:59.141Z,1.20
2023-03-27T23:53:46.537Z,1.63
2023-03-27T23:56:34.012Z,1.20
2023-03-27T23:59:21.464Z,1.20
